Main page
METAR-TAF:

METAR-TAF

Airports :

Colmenar Viejo, Spain

latitude: 40-39N, longitude: 003-44W, elevation: -999 m

Current weather observation

The report was made 3 hours and 6 minutes ago, at 18:00 UTC
Wind 2 kt from the East
Temperature 3°C
Humidity 48%
Pressure 1024 hPa
Visibility 10 km or more
Few clouds at a height of 6000 ft

METAR: LECV 211800Z 09002KT 9999 FEW060 03/M07 Q1024

Time: 22:06 (21:06 UTC)

Forecast

The report was made 4 hours and 6 minutes ago, at 17:00 UTC
Forecast valid from 21 at 18 UTC to 22 at 18 UTC
Wind 5 kt from the North/Northeast
Visibility 10 km or more
no clouds below 1500 m and no cumulonimbus
Probability 30% :
Temporary
from 22 at 03 UTC to 22 at 10 UTC
Overcast at a height of 600 ft

TAF: LECV 211700Z 2118/2218 02005KT CAVOK TX08/2215Z TN00/2208Z PROB30 TEMPO 2203/2210 OVC006

Weather observations and forecasts of more than 4000 airports (METAR and TAF reports).

The available stations are represented by yellow and red dots on the map.

Hover mouse over dot to see the name of the station.

Then click to see weather observations and forecasts.

To change the map : click on the green buttons with a black cross to zoom in, on the green button with a dash to zoom out, or on the green arrows for adjacent maps.


METAR-TAF: